sensor_id;sensor_type;location;lat;lon;timestamp;pressure;altitude;pressure_sealevel;temperature
70050;BMP180;57391;51.306;22.680;2023-12-14T00:00:41;98424.60;;;3.50
70050;BMP180;57391;51.306;22.680;2023-12-14T00:03:03;98425.00;;;3.58
70050;BMP180;57391;51.306;22.680;2023-12-14T00:05:05;98427.60;;;3.60
70050;BMP180;57391;51.306;22.680;2023-12-14T00:07:07;98425.60;;;3.60
70050;BMP180;57391;51.306;22.680;2023-12-14T00:09:09;98428.60;;;3.60
70050;BMP180;57391;51.306;22.680;2023-12-14T00:11:11;98425.80;;;3.60
70050;BMP180;57391;51.306;22.680;2023-12-14T00:13:13;98421.60;;;3.60
70050;BMP180;57391;51.306;22.680;2023-12-14T00:15:15;98420.60;;;3.56
70050;BMP180;57391;51.306;22.680;2023-12-14T00:17:17;98422.80;;;3.58
70050;BMP180;57391;51.306;22.680;2023-12-14T00:19:18;98427.80;;;3.60
70050;BMP180;57391;51.306;22.680;2023-12-14T00:21:20;98431.00;;;3.60
70050;BMP180;57391;51.306;22.680;2023-12-14T00:23:23;98425.80;;;3.60
70050;BMP180;57391;51.306;22.680;2023-12-14T00:25:25;98432.80;;;3.60
70050;BMP180;57391;51.306;22.680;2023-12-14T00:27:27;98431.00;;;3.60
70050;BMP180;57391;51.306;22.680;2023-12-14T00:29:28;98436.00;;;3.60
70050;BMP180;57391;51.306;22.680;2023-12-14T00:31:31;98433.40;;;3.60
70050;BMP180;57391;51.306;22.680;2023-12-14T00:33:32;98438.00;;;3.60
70050;BMP180;57391;51.306;22.680;2023-12-14T00:35:34;98438.80;;;3.60
70050;BMP180;57391;51.306;22.680;2023-12-14T00:37:36;98442.40;;;3.60
70050;BMP180;57391;51.306;22.680;2023-12-14T00:39:37;98442.40;;;3.60
70050;BMP180;57391;51.306;22.680;2023-12-14T00:41:39;98445.00;;;3.60
70050;BMP180;57391;51.306;22.680;2023-12-14T00:43:41;98451.20;;;3.66
70050;BMP180;57391;51.306;22.680;2023-12-14T00:45:43;98455.00;;;3.68
70050;BMP180;57391;51.306;22.680;2023-12-14T00:47:45;98461.00;;;3.70
70050;BMP180;57391;51.306;22.680;2023-12-14T00:49:46;98460.80;;;3.70
70050;BMP180;57391;51.306;22.680;2023-12-14T00:51:48;98461.40;;;3.70
70050;BMP180;57391;51.306;22.680;2023-12-14T00:53:50;98466.40;;;3.70
70050;BMP180;57391;51.306;22.680;2023-12-14T00:55:52;98465.40;;;3.70
70050;BMP180;57391;51.306;22.680;2023-12-14T00:57:53;98466.80;;;3.70
70050;BMP180;57391;51.306;22.680;2023-12-14T00:59:55;98468.80;;;3.70
70050;BMP180;57391;51.306;22.680;2023-12-14T01:01:57;98465.40;;;3.70
70050;BMP180;57391;51.306;22.680;2023-12-14T01:03:59;98470.20;;;3.68
70050;BMP180;57391;51.306;22.680;2023-12-14T01:06:01;98470.40;;;3.68
70050;BMP180;57391;51.306;22.680;2023-12-14T01:08:02;98471.60;;;3.66
70050;BMP180;57391;51.306;22.680;2023-12-14T01:10:05;98473.60;;;3.62
70050;BMP180;57391;51.306;22.680;2023-12-14T01:12:07;98469.00;;;3.60
70050;BMP180;57391;51.306;22.680;2023-12-14T01:14:09;98467.00;;;3.60
70050;BMP180;57391;51.306;22.680;2023-12-14T01:16:11;98464.00;;;3.60
70050;BMP180;57391;51.306;22.680;2023-12-14T01:18:12;98465.00;;;3.60
70050;BMP180;57391;51.306;22.680;2023-12-14T01:20:14;98457.60;;;3.60
70050;BMP180;57391;51.306;22.680;2023-12-14T01:22:16;98456.40;;;3.60
70050;BMP180;57391;51.306;22.680;2023-12-14T01:24:17;98459.60;;;3.60
70050;BMP180;57391;51.306;22.680;2023-12-14T01:26:19;98460.20;;;3.60
70050;BMP180;57391;51.306;22.680;2023-12-14T01:28:21;98465.60;;;3.60
70050;BMP180;57391;51.306;22.680;2023-12-14T01:30:23;98466.00;;;3.60
70050;BMP180;57391;51.306;22.680;2023-12-14T01:32:25;98458.60;;;3.60
70050;BMP180;57391;51.306;22.680;2023-12-14T01:34:26;98459.00;;;3.60
70050;BMP180;57391;51.306;22.680;2023-12-14T01:36:28;98459.40;;;3.60
70050;BMP180;57391;51.306;22.680;2023-12-14T01:38:30;98460.00;;;3.60
70050;BMP180;57391;51.306;22.680;2023-12-14T01:40:31;98454.00;;;3.60
70050;BMP180;57391;51.306;22.680;2023-12-14T01:42:33;98454.00;;;3.60
70050;BMP180;57391;51.306;22.680;2023-12-14T01:44:35;98446.60;;;3.60
70050;BMP180;57391;51.306;22.680;2023-12-14T01:46:37;98446.80;;;3.60
70050;BMP180;57391;51.306;22.680;2023-12-14T01:48:38;98446.00;;;3.60
70050;BMP180;57391;51.306;22.680;2023-12-14T01:50:40;98449.80;;;3.60
70050;BMP180;57391;51.306;22.680;2023-12-14T01:52:42;98450.00;;;3.64
70050;BMP180;57391;51.306;22.680;2023-12-14T01:54:44;98450.80;;;3.64
70050;BMP180;57391;51.306;22.680;2023-12-14T01:56:46;98449.60;;;3.68
70050;BMP180;57391;51.306;22.680;2023-12-14T01:58:48;98441.40;;;3.70
70050;BMP180;57391;51.306;22.680;2023-12-14T02:01:21;98440.00;;;3.66
70050;BMP180;57391;51.306;22.680;2023-12-14T02:03:25;98438.40;;;3.60
70050;BMP180;57391;51.306;22.680;2023-12-14T02:05:26;98440.40;;;3.60
70050;BMP180;57391;51.306;22.680;2023-12-14T02:07:28;98446.80;;;3.60
70050;BMP180;57391;51.306;22.680;2023-12-14T02:09:30;98451.40;;;3.60
70050;BMP180;57391;51.306;22.680;2023-12-14T02:11:31;98451.60;;;3.60
70050;BMP180;57391;51.306;22.680;2023-12-14T02:13:34;98450.60;;;3.60
70050;BMP180;57391;51.306;22.680;2023-12-14T02:15:36;98452.40;;;3.60
70050;BMP180;57391;51.306;22.680;2023-12-14T02:17:37;98449.60;;;3.60
70050;BMP180;57391;51.306;22.680;2023-12-14T02:19:39;98453.60;;;3.60
70050;BMP180;57391;51.306;22.680;2023-12-14T02:21:42;98456.60;;;3.60
70050;BMP180;57391;51.306;22.680;2023-12-14T02:23:45;98462.40;;;3.60
70050;BMP180;57391;51.306;22.680;2023-12-14T02:25:47;98461.00;;;3.60
70050;BMP180;57391;51.306;22.680;2023-12-14T02:27:50;98459.40;;;3.60
70050;BMP180;57391;51.306;22.680;2023-12-14T02:29:53;98462.40;;;3.60
70050;BMP180;57391;51.306;22.680;2023-12-14T02:31:54;98453.20;;;3.60
70050;BMP180;57391;51.306;22.680;2023-12-14T02:33:56;98453.60;;;3.60
70050;BMP180;57391;51.306;22.680;2023-12-14T02:35:58;98463.60;;;3.60
70050;BMP180;57391;51.306;22.680;2023-12-14T02:38:00;98464.60;;;3.54
70050;BMP180;57391;51.306;22.680;2023-12-14T02:40:02;98467.20;;;3.52
70050;BMP180;57391;51.306;22.680;2023-12-14T02:42:04;98469.40;;;3.50
70050;BMP180;57391;51.306;22.680;2023-12-14T02:44:06;98465.60;;;3.50
70050;BMP180;57391;51.306;22.680;2023-12-14T02:46:08;98462.00;;;3.52
70050;BMP180;57391;51.306;22.680;2023-12-14T02:48:10;98462.00;;;3.50
70050;BMP180;57391;51.306;22.680;2023-12-14T02:50:12;98460.20;;;3.56
70050;BMP180;57391;51.306;22.680;2023-12-14T02:52:14;98464.40;;;3.56
70050;BMP180;57391;51.306;22.680;2023-12-14T02:54:16;98467.40;;;3.50
70050;BMP180;57391;51.306;22.680;2023-12-14T02:56:18;98466.60;;;3.50
70050;BMP180;57391;51.306;22.680;2023-12-14T02:58:19;98472.00;;;3.54
70050;BMP180;57391;51.306;22.680;2023-12-14T03:00:21;98470.60;;;3.60
70050;BMP180;57391;51.306;22.680;2023-12-14T03:02:23;98472.80;;;3.60
70050;BMP180;57391;51.306;22.680;2023-12-14T03:04:24;98475.80;;;3.60
70050;BMP180;57391;51.306;22.680;2023-12-14T03:06:26;98475.80;;;3.60
70050;BMP180;57391;51.306;22.680;2023-12-14T03:08:28;98479.00;;;3.60
70050;BMP180;57391;51.306;22.680;2023-12-14T03:10:30;98481.20;;;3.60
70050;BMP180;57391;51.306;22.680;2023-12-14T03:12:31;98489.60;;;3.60
70050;BMP180;57391;51.306;22.680;2023-12-14T03:14:33;98486.00;;;3.60
70050;BMP180;57391;51.306;22.680;2023-12-14T03:16:35;98484.80;;;3.60
70050;BMP180;57391;51.306;22.680;2023-12-14T03:18:37;98485.60;;;3.60
70050;BMP180;57391;51.306;22.680;2023-12-14T03:20:38;98487.20;;;3.60
70050;BMP180;57391;51.306;22.680;2023-12-14T03:22:40;98487.40;;;3.60
70050;BMP180;57391;51.306;22.680;2023-12-14T03:24:42;98488.00;;;3.60
70050;BMP180;57391;51.306;22.680;2023-12-14T03:26:44;98488.80;;;3.60
70050;BMP180;57391;51.306;22.680;2023-12-14T03:28:46;98492.20;;;3.60
70050;BMP180;57391;51.306;22.680;2023-12-14T03:30:48;98493.60;;;3.60
70050;BMP180;57391;51.306;22.680;2023-12-14T03:32:49;98496.20;;;3.60
70050;BMP180;57391;51.306;22.680;2023-12-14T03:34:51;98497.40;;;3.60
70050;BMP180;57391;51.306;22.680;2023-12-14T03:36:53;98496.00;;;3.60
70050;BMP180;57391;51.306;22.680;2023-12-14T03:38:55;98495.40;;;3.60
70050;BMP180;57391;51.306;22.680;2023-12-14T03:40:57;98502.80;;;3.60
70050;BMP180;57391;51.306;22.680;2023-12-14T03:42:58;98503.80;;;3.60
70050;BMP180;57391;51.306;22.680;2023-12-14T03:45:00;98500.20;;;3.60
70050;BMP180;57391;51.306;22.680;2023-12-14T03:47:02;98506.40;;;3.58
70050;BMP180;57391;51.306;22.680;2023-12-14T03:49:04;98512.40;;;3.50
70050;BMP180;57391;51.306;22.680;2023-12-14T03:51:06;98514.20;;;3.50
70050;BMP180;57391;51.306;22.680;2023-12-14T03:53:07;98519.40;;;3.50
70050;BMP180;57391;51.306;22.680;2023-12-14T03:55:09;98515.20;;;3.50
70050;BMP180;57391;51.306;22.680;2023-12-14T03:57:11;98518.60;;;3.40
70050;BMP180;57391;51.306;22.680;2023-12-14T03:59:13;98520.20;;;3.40
70050;BMP180;57391;51.306;22.680;2023-12-14T04:01:20;98517.80;;;3.40
70050;BMP180;57391;51.306;22.680;2023-12-14T04:03:22;98524.00;;;3.40
70050;BMP180;57391;51.306;22.680;2023-12-14T04:05:24;98525.60;;;3.40
70050;BMP180;57391;51.306;22.680;2023-12-14T04:07:25;98525.00;;;3.40
70050;BMP180;57391;51.306;22.680;2023-12-14T04:09:27;98524.00;;;3.40
70050;BMP180;57391;51.306;22.680;2023-12-14T04:11:29;98523.40;;;3.50
70050;BMP180;57391;51.306;22.680;2023-12-14T04:13:30;98526.20;;;3.50
70050;BMP180;57391;51.306;22.680;2023-12-14T04:15:32;98526.00;;;3.50
70050;BMP180;57391;51.306;22.680;2023-12-14T04:17:34;98528.80;;;3.50
70050;BMP180;57391;51.306;22.680;2023-12-14T04:19:39;98533.40;;;3.50
70050;BMP180;57391;51.306;22.680;2023-12-14T04:21:41;98534.40;;;3.50
70050;BMP180;57391;51.306;22.680;2023-12-14T04:23:42;98537.40;;;3.50
70050;BMP180;57391;51.306;22.680;2023-12-14T04:25:44;98535.00;;;3.50
70050;BMP180;57391;51.306;22.680;2023-12-14T04:27:46;98531.00;;;3.50
70050;BMP180;57391;51.306;22.680;2023-12-14T04:29:48;98526.00;;;3.50
70050;BMP180;57391;51.306;22.680;2023-12-14T04:31:49;98535.00;;;3.50
70050;BMP180;57391;51.306;22.680;2023-12-14T04:33:51;98532.00;;;3.50
70050;BMP180;57391;51.306;22.680;2023-12-14T04:35:53;98527.80;;;3.50
70050;BMP180;57391;51.306;22.680;2023-12-14T04:37:55;98527.60;;;3.42
70050;BMP180;57391;51.306;22.680;2023-12-14T04:39:59;98525.20;;;3.40
70050;BMP180;57391;51.306;22.680;2023-12-14T04:42:01;98533.00;;;3.42
70050;BMP180;57391;51.306;22.680;2023-12-14T04:44:03;98537.00;;;3.40
70050;BMP180;57391;51.306;22.680;2023-12-14T04:46:05;98541.00;;;3.40
70050;BMP180;57391;51.306;22.680;2023-12-14T04:48:07;98535.40;;;3.40
70050;BMP180;57391;51.306;22.680;2023-12-14T04:50:09;98535.40;;;3.40
70050;BMP180;57391;51.306;22.680;2023-12-14T04:52:11;98536.00;;;3.40
70050;BMP180;57391;51.306;22.680;2023-12-14T04:54:13;98532.60;;;3.40
70050;BMP180;57391;51.306;22.680;2023-12-14T04:56:15;98535.20;;;3.40
70050;BMP180;57391;51.306;22.680;2023-12-14T04:58:16;98541.20;;;3.40
70050;BMP180;57391;51.306;22.680;2023-12-14T05:00:18;98545.00;;;3.40
70050;BMP180;57391;51.306;22.680;2023-12-14T05:02:20;98547.60;;;3.40
70050;BMP180;57391;51.306;22.680;2023-12-14T05:04:22;98545.00;;;3.40
70050;BMP180;57391;51.306;22.680;2023-12-14T05:06:23;98547.20;;;3.40
70050;BMP180;57391;51.306;22.680;2023-12-14T05:08:25;98550.20;;;3.40
70050;BMP180;57391;51.306;22.680;2023-12-14T05:10:27;98558.00;;;3.40
70050;BMP180;57391;51.306;22.680;2023-12-14T05:12:28;98561.00;;;3.40
70050;BMP180;57391;51.306;22.680;2023-12-14T05:14:33;98568.80;;;3.40
70050;BMP180;57391;51.306;22.680;2023-12-14T05:16:34;98576.20;;;3.40
70050;BMP180;57391;51.306;22.680;2023-12-14T05:18:36;98578.60;;;3.40
70050;BMP180;57391;51.306;22.680;2023-12-14T05:20:38;98578.20;;;3.40
70050;BMP180;57391;51.306;22.680;2023-12-14T05:22:39;98576.00;;;3.40
70050;BMP180;57391;51.306;22.680;2023-12-14T05:24:41;98578.20;;;3.40
70050;BMP180;57391;51.306;22.680;2023-12-14T05:26:43;98582.40;;;3.40
70050;BMP180;57391;51.306;22.680;2023-12-14T05:28:45;98582.40;;;3.40
70050;BMP180;57391;51.306;22.680;2023-12-14T05:30:46;98578.20;;;3.40
70050;BMP180;57391;51.306;22.680;2023-12-14T05:32:48;98582.00;;;3.40
70050;BMP180;57391;51.306;22.680;2023-12-14T05:34:50;98585.20;;;3.40
70050;BMP180;57391;51.306;22.680;2023-12-14T05:36:52;98588.80;;;3.40
70050;BMP180;57391;51.306;22.680;2023-12-14T05:38:53;98590.80;;;3.40
70050;BMP180;57391;51.306;22.680;2023-12-14T05:40:55;98591.80;;;3.40
70050;BMP180;57391;51.306;22.680;2023-12-14T05:42:57;98597.20;;;3.40
70050;BMP180;57391;51.306;22.680;2023-12-14T05:44:59;98595.00;;;3.40
70050;BMP180;57391;51.306;22.680;2023-12-14T05:47:01;98600.60;;;3.40
70050;BMP180;57391;51.306;22.680;2023-12-14T05:49:02;98601.40;;;3.40
70050;BMP180;57391;51.306;22.680;2023-12-14T05:51:04;98602.20;;;3.40
70050;BMP180;57391;51.306;22.680;2023-12-14T05:53:06;98604.20;;;3.40
70050;BMP180;57391;51.306;22.680;2023-12-14T05:55:11;98606.40;;;3.40
70050;BMP180;57391;51.306;22.680;2023-12-14T05:57:13;98602.80;;;3.40
70050;BMP180;57391;51.306;22.680;2023-12-14T05:59:14;98603.40;;;3.40
70050;BMP180;57391;51.306;22.680;2023-12-14T06:01:19;98605.20;;;3.40
70050;BMP180;57391;51.306;22.680;2023-12-14T06:03:22;98614.40;;;3.40
70050;BMP180;57391;51.306;22.680;2023-12-14T06:05:23;98615.80;;;3.38
70050;BMP180;57391;51.306;22.680;2023-12-14T06:07:25;98620.60;;;3.40
70050;BMP180;57391;51.306;22.680;2023-12-14T06:09:27;98621.00;;;3.38
70050;BMP180;57391;51.306;22.680;2023-12-14T06:11:36;98619.80;;;3.30
70050;BMP180;57391;51.306;22.680;2023-12-14T06:13:38;98623.60;;;3.30
70050;BMP180;57391;51.306;22.680;2023-12-14T06:15:40;98629.80;;;3.30
70050;BMP180;57391;51.306;22.680;2023-12-14T06:17:42;98633.40;;;3.30
70050;BMP180;57391;51.306;22.680;2023-12-14T06:19:44;98638.40;;;3.30
70050;BMP180;57391;51.306;22.680;2023-12-14T06:21:46;98635.80;;;3.30
70050;BMP180;57391;51.306;22.680;2023-12-14T06:23:48;98635.60;;;3.30
70050;BMP180;57391;51.306;22.680;2023-12-14T06:25:50;98636.20;;;3.30
70050;BMP180;57391;51.306;22.680;2023-12-14T06:27:52;98630.00;;;3.30
70050;BMP180;57391;51.306;22.680;2023-12-14T06:29:54;98633.60;;;3.30
70050;BMP180;57391;51.306;22.680;2023-12-14T06:31:55;98641.00;;;3.24
70050;BMP180;57391;51.306;22.680;2023-12-14T06:33:57;98639.00;;;3.20
70050;BMP180;57391;51.306;22.680;2023-12-14T06:36:03;98646.40;;;3.20
70050;BMP180;57391;51.306;22.680;2023-12-14T06:38:06;98653.20;;;3.20
70050;BMP180;57391;51.306;22.680;2023-12-14T06:40:09;98653.00;;;3.20
70050;BMP180;57391;51.306;22.680;2023-12-14T06:42:10;98656.80;;;3.26
70050;BMP180;57391;51.306;22.680;2023-12-14T06:44:13;98655.60;;;3.30
70050;BMP180;57391;51.306;22.680;2023-12-14T06:46:15;98657.40;;;3.26
70050;BMP180;57391;51.306;22.680;2023-12-14T06:48:17;98658.00;;;3.22
70050;BMP180;57391;51.306;22.680;2023-12-14T06:50:19;98660.80;;;3.20
70050;BMP180;57391;51.306;22.680;2023-12-14T06:52:20;98660.80;;;3.20
70050;BMP180;57391;51.306;22.680;2023-12-14T06:54:22;98662.80;;;3.20
70050;BMP180;57391;51.306;22.680;2023-12-14T06:56:24;98662.80;;;3.20
70050;BMP180;57391;51.306;22.680;2023-12-14T06:58:26;98666.40;;;3.20
70050;BMP180;57391;51.306;22.680;2023-12-14T07:00:27;98670.40;;;3.20
70050;BMP180;57391;51.306;22.680;2023-12-14T07:02:30;98672.20;;;3.20
70050;BMP180;57391;51.306;22.680;2023-12-14T07:04:32;98675.40;;;3.20
70050;BMP180;57391;51.306;22.680;2023-12-14T07:06:34;98681.00;;;3.20
70050;BMP180;57391;51.306;22.680;2023-12-14T07:08:36;98684.60;;;3.24
70050;BMP180;57391;51.306;22.680;2023-12-14T07:10:41;98687.00;;;3.20
70050;BMP180;57391;51.306;22.680;2023-12-14T07:12:43;98695.00;;;3.22
70050;BMP180;57391;51.306;22.680;2023-12-14T07:14:45;98695.80;;;3.24
70050;BMP180;57391;51.306;22.680;2023-12-14T07:16:46;98695.60;;;3.20
70050;BMP180;57391;51.306;22.680;2023-12-14T07:18:48;98696.40;;;3.20
70050;BMP180;57391;51.306;22.680;2023-12-14T07:20:50;98697.40;;;3.20
70050;BMP180;57391;51.306;22.680;2023-12-14T07:22:51;98703.00;;;3.20
70050;BMP180;57391;51.306;22.680;2023-12-14T07:24:53;98706.20;;;3.20
70050;BMP180;57391;51.306;22.680;2023-12-14T07:26:55;98706.00;;;3.20
70050;BMP180;57391;51.306;22.680;2023-12-14T07:28:57;98705.60;;;3.20
70050;BMP180;57391;51.306;22.680;2023-12-14T07:30:58;98709.20;;;3.20
70050;BMP180;57391;51.306;22.680;2023-12-14T07:33:00;98714.60;;;3.20
70050;BMP180;57391;51.306;22.680;2023-12-14T07:35:02;98716.20;;;3.20
70050;BMP180;57391;51.306;22.680;2023-12-14T07:37:04;98715.20;;;3.20
70050;BMP180;57391;51.306;22.680;2023-12-14T07:39:07;98712.40;;;3.20
70050;BMP180;57391;51.306;22.680;2023-12-14T07:41:10;98709.60;;;3.20
70050;BMP180;57391;51.306;22.680;2023-12-14T07:43:12;98711.80;;;3.20
70050;BMP180;57391;51.306;22.680;2023-12-14T07:45:14;98716.20;;;3.20
70050;BMP180;57391;51.306;22.680;2023-12-14T07:47:15;98714.00;;;3.20
70050;BMP180;57391;51.306;22.680;2023-12-14T07:49:17;98716.60;;;3.20
70050;BMP180;57391;51.306;22.680;2023-12-14T07:51:24;98723.20;;;3.20
70050;BMP180;57391;51.306;22.680;2023-12-14T07:53:25;98724.60;;;3.20
70050;BMP180;57391;51.306;22.680;2023-12-14T07:55:28;98729.60;;;3.20
70050;BMP180;57391;51.306;22.680;2023-12-14T07:57:30;98728.80;;;3.20
70050;BMP180;57391;51.306;22.680;2023-12-14T07:59:32;98729.20;;;3.20
70050;BMP180;57391;51.306;22.680;2023-12-14T08:01:34;98732.80;;;3.20
70050;BMP180;57391;51.306;22.680;2023-12-14T08:03:37;98732.60;;;3.20
70050;BMP180;57391;51.306;22.680;2023-12-14T08:05:44;98736.80;;;3.20
70050;BMP180;57391;51.306;22.680;2023-12-14T08:07:47;98738.20;;;3.20
70050;BMP180;57391;51.306;22.680;2023-12-14T08:09:49;98742.80;;;3.22
70050;BMP180;57391;51.306;22.680;2023-12-14T08:11:51;98746.60;;;3.30
70050;BMP180;57391;51.306;22.680;2023-12-14T08:13:53;98747.00;;;3.30
70050;BMP180;57391;51.306;22.680;2023-12-14T08:15:55;98753.40;;;3.30
70050;BMP180;57391;51.306;22.680;2023-12-14T08:17:57;98759.60;;;3.30
70050;BMP180;57391;51.306;22.680;2023-12-14T08:19:59;98758.80;;;3.30
70050;BMP180;57391;51.306;22.680;2023-12-14T08:22:01;98762.00;;;3.30
70050;BMP180;57391;51.306;22.680;2023-12-14T08:24:03;98761.60;;;3.30
70050;BMP180;57391;51.306;22.680;2023-12-14T08:26:06;98759.20;;;3.40
70050;BMP180;57391;51.306;22.680;2023-12-14T08:28:09;98766.40;;;3.40
70050;BMP180;57391;51.306;22.680;2023-12-14T08:30:12;98766.00;;;3.40
70050;BMP180;57391;51.306;22.680;2023-12-14T08:32:14;98772.80;;;3.40
70050;BMP180;57391;51.306;22.680;2023-12-14T08:34:16;98772.80;;;3.40
70050;BMP180;57391;51.306;22.680;2023-12-14T08:36:19;98776.60;;;3.40
70050;BMP180;57391;51.306;22.680;2023-12-14T08:38:21;98785.20;;;3.50
70050;BMP180;57391;51.306;22.680;2023-12-14T08:40:23;98792.20;;;3.50
70050;BMP180;57391;51.306;22.680;2023-12-14T08:42:25;98791.80;;;3.50
70050;BMP180;57391;51.306;22.680;2023-12-14T08:44:27;98793.80;;;3.54
70050;BMP180;57391;51.306;22.680;2023-12-14T08:46:28;98796.40;;;3.60
70050;BMP180;57391;51.306;22.680;2023-12-14T08:48:30;98797.40;;;3.60
70050;BMP180;57391;51.306;22.680;2023-12-14T08:50:32;98800.60;;;3.60
70050;BMP180;57391;51.306;22.680;2023-12-14T08:52:34;98800.00;;;3.70
70050;BMP180;57391;51.306;22.680;2023-12-14T08:54:35;98802.00;;;3.70
70050;BMP180;57391;51.306;22.680;2023-12-14T08:56:37;98802.40;;;3.70
70050;BMP180;57391;51.306;22.680;2023-12-14T08:58:39;98810.00;;;3.70
70050;BMP180;57391;51.306;22.680;2023-12-14T09:00:40;98813.80;;;3.70
70050;BMP180;57391;51.306;22.680;2023-12-14T09:02:42;98819.60;;;3.80
70050;BMP180;57391;51.306;22.680;2023-12-14T09:04:45;98820.20;;;3.72
70050;BMP180;57391;51.306;22.680;2023-12-14T09:06:47;98824.00;;;3.70
70050;BMP180;57391;51.306;22.680;2023-12-14T09:08:49;98826.20;;;3.78
70050;BMP180;57391;51.306;22.680;2023-12-14T09:10:50;98823.60;;;3.80
70050;BMP180;57391;51.306;22.680;2023-12-14T09:12:52;98822.60;;;3.78
70050;BMP180;57391;51.306;22.680;2023-12-14T09:14:54;98825.60;;;3.80
70050;BMP180;57391;51.306;22.680;2023-12-14T09:16:56;98830.40;;;3.80
70050;BMP180;57391;51.306;22.680;2023-12-14T09:18:57;98835.80;;;3.80
70050;BMP180;57391;51.306;22.680;2023-12-14T09:20:59;98837.60;;;3.80
70050;BMP180;57391;51.306;22.680;2023-12-14T09:23:01;98843.20;;;3.84
70050;BMP180;57391;51.306;22.680;2023-12-14T09:25:03;98846.00;;;3.88
70050;BMP180;57391;51.306;22.680;2023-12-14T09:27:05;98847.40;;;3.90
70050;BMP180;57391;51.306;22.680;2023-12-14T09:29:07;98846.60;;;3.90
70050;BMP180;57391;51.306;22.680;2023-12-14T09:31:09;98853.80;;;3.90
70050;BMP180;57391;51.306;22.680;2023-12-14T09:33:11;98851.80;;;3.92
70050;BMP180;57391;51.306;22.680;2023-12-14T09:35:13;98853.80;;;3.96
70050;BMP180;57391;51.306;22.680;2023-12-14T09:37:15;98863.60;;;4.00
70050;BMP180;57391;51.306;22.680;2023-12-14T09:39:17;98862.80;;;4.00
70050;BMP180;57391;51.306;22.680;2023-12-14T09:41:20;98867.80;;;4.00
70050;BMP180;57391;51.306;22.680;2023-12-14T09:43:22;98874.40;;;4.00
70050;BMP180;57391;51.306;22.680;2023-12-14T09:45:28;98877.80;;;4.00
70050;BMP180;57391;51.306;22.680;2023-12-14T09:47:31;98881.40;;;4.00
70050;BMP180;57391;51.306;22.680;2023-12-14T09:49:32;98882.60;;;4.02
70050;BMP180;57391;51.306;22.680;2023-12-14T09:51:34;98884.40;;;4.10
70050;BMP180;57391;51.306;22.680;2023-12-14T09:53:36;98887.20;;;4.10
70050;BMP180;57391;51.306;22.680;2023-12-14T09:55:38;98886.80;;;4.10
70050;BMP180;57391;51.306;22.680;2023-12-14T09:57:39;98893.80;;;4.10
70050;BMP180;57391;51.306;22.680;2023-12-14T09:59:50;98892.60;;;4.10
70050;BMP180;57391;51.306;22.680;2023-12-14T10:01:52;98898.20;;;4.14
70050;BMP180;57391;51.306;22.680;2023-12-14T10:04:08;98898.80;;;4.18
70050;BMP180;57391;51.306;22.680;2023-12-14T10:06:11;98902.40;;;4.20
70050;BMP180;57391;51.306;22.680;2023-12-14T10:08:15;98901.80;;;4.20
70050;BMP180;57391;51.306;22.680;2023-12-14T10:10:18;98903.00;;;4.20
70050;BMP180;57391;51.306;22.680;2023-12-14T10:12:20;98907.60;;;4.20
70050;BMP180;57391;51.306;22.680;2023-12-14T10:14:25;98910.00;;;4.20
70050;BMP180;57391;51.306;22.680;2023-12-14T10:16:31;98915.60;;;4.20
70050;BMP180;57391;51.306;22.680;2023-12-14T10:18:34;98915.00;;;4.20
70050;BMP180;57391;51.306;22.680;2023-12-14T10:20:36;98915.80;;;4.20
70050;BMP180;57391;51.306;22.680;2023-12-14T10:22:39;98914.40;;;4.24
70050;BMP180;57391;51.306;22.680;2023-12-14T10:24:44;98914.80;;;4.24
70050;BMP180;57391;51.306;22.680;2023-12-14T10:26:47;98918.60;;;4.20
70050;BMP180;57391;51.306;22.680;2023-12-14T10:28:51;98924.00;;;4.20
70050;BMP180;57391;51.306;22.680;2023-12-14T10:30:53;98919.20;;;4.20
70050;BMP180;57391;51.306;22.680;2023-12-14T10:32:55;98927.60;;;4.20
70050;BMP180;57391;51.306;22.680;2023-12-14T10:34:57;98931.40;;;4.20
70050;BMP180;57391;51.306;22.680;2023-12-14T10:36:59;98927.20;;;4.20
70050;BMP180;57391;51.306;22.680;2023-12-14T10:39:02;98930.80;;;4.20
70050;BMP180;57391;51.306;22.680;2023-12-14T10:41:05;98938.20;;;4.14
70050;BMP180;57391;51.306;22.680;2023-12-14T10:43:10;98930.20;;;4.14
70050;BMP180;57391;51.306;22.680;2023-12-14T10:45:14;98930.00;;;4.12
70050;BMP180;57391;51.306;22.680;2023-12-14T10:47:19;98937.20;;;4.10
70050;BMP180;57391;51.306;22.680;2023-12-14T10:49:23;98943.20;;;4.10
70050;BMP180;57391;51.306;22.680;2023-12-14T10:51:27;98943.20;;;4.10
70050;BMP180;57391;51.306;22.680;2023-12-14T10:53:29;98943.60;;;4.10
70050;BMP180;57391;51.306;22.680;2023-12-14T10:55:44;98951.40;;;4.10
70050;BMP180;57391;51.306;22.680;2023-12-14T10:57:46;98948.00;;;4.10
70050;BMP180;57391;51.306;22.680;2023-12-14T10:59:58;98948.40;;;4.10
70050;BMP180;57391;51.306;22.680;2023-12-14T11:02:07;98941.40;;;4.10
70050;BMP180;57391;51.306;22.680;2023-12-14T11:04:13;98939.00;;;4.10
70050;BMP180;57391;51.306;22.680;2023-12-14T11:06:31;98939.20;;;4.10
70050;BMP180;57391;51.306;22.680;2023-12-14T11:08:34;98942.80;;;4.10
70050;BMP180;57391;51.306;22.680;2023-12-14T11:10:52;98948.20;;;4.04
70050;BMP180;57391;51.306;22.680;2023-12-14T11:13:03;98949.00;;;4.00
70050;BMP180;57391;51.306;22.680;2023-12-14T11:15:06;98951.00;;;4.00
70050;BMP180;57391;51.306;22.680;2023-12-14T11:17:09;98949.20;;;4.00
70050;BMP180;57391;51.306;22.680;2023-12-14T11:19:24;98948.20;;;4.00
70050;BMP180;57391;51.306;22.680;2023-12-14T11:21:26;98950.40;;;4.00
70050;BMP180;57391;51.306;22.680;2023-12-14T11:23:34;98954.80;;;4.00
70050;BMP180;57391;51.306;22.680;2023-12-14T11:25:37;98952.40;;;4.00
70050;BMP180;57391;51.306;22.680;2023-12-14T11:27:43;98953.80;;;4.00
70050;BMP180;57391;51.306;22.680;2023-12-14T11:29:48;98956.20;;;4.00
70050;BMP180;57391;51.306;22.680;2023-12-14T11:31:50;98953.80;;;4.10
70050;BMP180;57391;51.306;22.680;2023-12-14T11:33:53;98956.80;;;4.10
70050;BMP180;57391;51.306;22.680;2023-12-14T11:35:57;98955.60;;;4.10
70050;BMP180;57391;51.306;22.680;2023-12-14T11:37:59;98958.00;;;4.12
70050;BMP180;57391;51.306;22.680;2023-12-14T11:40:05;98963.80;;;4.18
70050;BMP180;57391;51.306;22.680;2023-12-14T11:42:09;98965.80;;;4.20
70050;BMP180;57391;51.306;22.680;2023-12-14T11:44:22;98961.60;;;4.20
70050;BMP180;57391;51.306;22.680;2023-12-14T11:46:24;98965.60;;;4.26